createdAt,value
2022-08-29T00:00:18.961Z,3.20
2022-08-29T00:02:49.342Z,3.30
2022-08-29T00:05:18.001Z,3.17
2022-08-29T00:07:46.453Z,3.50
2022-08-29T00:10:19.748Z,2.80
2022-08-29T00:12:48.414Z,3.57
2022-08-29T00:15:17.492Z,3.20
2022-08-29T00:17:45.951Z,3.47
2022-08-29T00:20:19.242Z,3.80
2022-08-29T00:22:48.158Z,3.00
2022-08-29T00:25:18.148Z,3.40
2022-08-29T00:27:49.629Z,3.17
2022-08-29T00:30:19.101Z,3.20
2022-08-29T00:32:47.220Z,2.90
2022-08-29T00:35:18.569Z,3.07
2022-08-29T00:37:46.714Z,3.70
2022-08-29T00:40:21.352Z,3.80
2022-08-29T00:42:49.598Z,3.27
2022-08-29T00:45:19.299Z,3.47
2022-08-29T00:47:53.247Z,3.43
2022-08-29T00:50:28.755Z,3.40
2022-08-29T00:53:00.211Z,3.57
2022-08-29T00:55:34.596Z,3.13
2022-08-29T00:58:14.124Z,3.83
2022-08-29T01:00:43.687Z,3.47
2022-08-29T01:03:13.781Z,4.33
2022-08-29T01:05:42.910Z,4.03
2022-08-29T01:08:11.223Z,3.30
2022-08-29T01:10:58.243Z,4.60
2022-08-29T01:13:32.439Z,3.80
2022-08-29T01:16:01.952Z,3.80
2022-08-29T01:18:32.251Z,3.63
2022-08-29T01:21:09.109Z,3.20
2022-08-29T01:23:43.842Z,3.30
2022-08-29T01:26:13.614Z,3.27
2022-08-29T01:28:45.442Z,3.40
2022-08-29T01:31:31.761Z,3.80
2022-08-29T01:34:08.500Z,3.20
2022-08-29T01:36:50.332Z,3.10
2022-08-29T01:39:19.513Z,3.77
2022-08-29T01:41:49.795Z,3.10
2022-08-29T01:44:22.653Z,3.80
2022-08-29T01:46:56.808Z,3.10
2022-08-29T01:49:28.019Z,3.03
2022-08-29T01:51:56.185Z,3.23
2022-08-29T01:54:24.481Z,3.60
2022-08-29T01:56:55.637Z,3.57
2022-08-29T01:59:27.258Z,3.20
2022-08-29T02:02:00.854Z,2.87
2022-08-29T02:04:29.349Z,3.27
2022-08-29T02:06:58.794Z,2.90
2022-08-29T02:09:28.585Z,3.53
2022-08-29T02:11:59.407Z,3.23
2022-08-29T02:14:27.513Z,3.43
2022-08-29T02:16:55.967Z,3.10
2022-08-29T02:19:24.377Z,2.97
2022-08-29T02:21:52.844Z,3.13
2022-08-29T02:24:25.758Z,3.27
2022-08-29T02:26:57.711Z,3.00
2022-08-29T02:29:37.359Z,3.30
2022-08-29T02:32:07.895Z,2.80
2022-08-29T02:34:36.468Z,2.97
2022-08-29T02:37:04.917Z,3.50
2022-08-29T02:39:34.373Z,3.40
2022-08-29T02:42:04.247Z,3.20
2022-08-29T02:44:32.553Z,3.50
2022-08-29T02:47:00.748Z,3.00
2022-08-29T02:49:29.003Z,3.60
2022-08-29T02:51:58.509Z,3.10
2022-08-29T02:54:26.682Z,3.07
2022-08-29T02:56:54.834Z,2.97
2022-08-29T02:59:27.850Z,3.33
2022-08-29T03:01:56.002Z,3.50
2022-08-29T03:04:25.525Z,3.50
2022-08-29T03:06:53.640Z,2.67
2022-08-29T03:09:21.865Z,4.37
2022-08-29T03:11:52.536Z,3.87
2022-08-29T03:14:20.749Z,3.30
2022-08-29T03:16:50.251Z,3.37
2022-08-29T03:19:18.530Z,3.27
2022-08-29T03:21:47.866Z,3.30
2022-08-29T03:24:16.517Z,3.13
2022-08-29T03:26:56.785Z,3.20
2022-08-29T03:29:27.544Z,3.60
2022-08-29T03:31:58.483Z,3.17
2022-08-29T03:34:27.406Z,3.20
2022-08-29T03:36:55.817Z,3.70
2022-08-29T03:39:23.963Z,3.50
2022-08-29T03:41:52.166Z,3.67
2022-08-29T03:44:20.545Z,3.30
2022-08-29T03:46:48.743Z,3.80
2022-08-29T03:49:18.293Z,4.00
2022-08-29T03:51:46.382Z,3.60
2022-08-29T03:54:14.484Z,4.60
2022-08-29T03:56:42.713Z,3.07
2022-08-29T03:59:11.452Z,3.47
2022-08-29T04:01:39.790Z,3.40
2022-08-29T04:04:08.058Z,3.40
2022-08-29T04:06:37.462Z,3.50
2022-08-29T04:09:05.657Z,3.50
2022-08-29T04:11:33.743Z,3.03
2022-08-29T04:14:02.284Z,3.40
2022-08-29T04:16:31.439Z,3.47
2022-08-29T04:19:00.115Z,3.63
2022-08-29T04:21:28.517Z,3.43
2022-08-29T04:23:58.266Z,3.70
2022-08-29T04:26:36.342Z,3.10
2022-08-29T04:29:06.246Z,3.90
2022-08-29T04:31:34.543Z,3.93
2022-08-29T04:34:02.755Z,3.43
2022-08-29T04:36:31.159Z,4.33
2022-08-29T04:39:00.654Z,4.00
2022-08-29T04:41:28.937Z,4.00
2022-08-29T04:43:57.065Z,3.73
2022-08-29T04:46:25.426Z,3.80
2022-08-29T04:48:54.428Z,4.03
2022-08-29T04:51:23.466Z,4.00
2022-08-29T04:53:53.219Z,4.23
2022-08-29T04:56:23.294Z,4.20
2022-08-29T04:58:52.087Z,4.77
2022-08-29T05:01:24.162Z,4.20
2022-08-29T05:03:53.228Z,4.40
2022-08-29T05:06:23.329Z,4.00
2022-08-29T05:08:55.009Z,4.30
2022-08-29T05:11:31.434Z,3.57
2022-08-29T05:14:01.222Z,4.40
2022-08-29T05:16:31.011Z,3.87
2022-08-29T05:19:00.595Z,4.30
2022-08-29T05:21:35.847Z,4.17
2022-08-29T05:24:07.877Z,4.53
2022-08-29T05:26:40.198Z,3.93
2022-08-29T05:29:10.836Z,4.43
2022-08-29T05:31:41.129Z,3.83
2022-08-29T05:34:32.138Z,3.80
2022-08-29T05:36:59.247Z,3.93
2022-08-29T05:39:27.566Z,4.03
2022-08-29T05:41:58.424Z,4.07
2022-08-29T05:44:34.219Z,4.00
2022-08-29T05:47:03.890Z,3.67
2022-08-29T05:49:32.496Z,4.03
2022-08-29T05:52:01.406Z,5.20
2022-08-29T05:54:29.898Z,4.30
2022-08-29T05:56:59.820Z,4.20
2022-08-29T05:59:27.973Z,3.83
2022-08-29T06:01:56.089Z,4.03
2022-08-29T06:04:24.353Z,3.97
2022-08-29T06:06:52.440Z,3.73
2022-08-29T06:09:20.633Z,3.73
2022-08-29T06:11:51.099Z,3.73
2022-08-29T06:14:20.824Z,4.37
2022-08-29T06:16:49.003Z,3.57
2022-08-29T06:19:17.369Z,3.90
2022-08-29T06:21:45.476Z,4.23
2022-08-29T06:24:13.590Z,4.03
2022-08-29T06:26:41.721Z,3.70
2022-08-29T06:29:11.272Z,4.50
2022-08-29T06:31:40.804Z,5.43
2022-08-29T06:34:10.875Z,4.20
2022-08-29T06:36:39.871Z,3.87
2022-08-29T06:39:11.130Z,4.07
2022-08-29T06:41:43.364Z,3.90
2022-08-29T06:44:11.693Z,3.57
2022-08-29T06:46:43.709Z,4.10
2022-08-29T06:49:15.286Z,3.77
2022-08-29T06:51:49.010Z,3.87
2022-08-29T06:54:18.264Z,3.20
2022-08-29T06:56:46.612Z,4.20
2022-08-29T06:59:15.212Z,3.93
2022-08-29T07:01:47.044Z,3.73
2022-08-29T07:04:15.771Z,4.00
2022-08-29T07:06:49.962Z,4.10
2022-08-29T07:09:18.582Z,4.17
2022-08-29T07:11:46.661Z,4.40
2022-08-29T07:14:15.529Z,4.20
2022-08-29T07:16:44.948Z,4.13
2022-08-29T07:19:13.180Z,3.93
2022-08-29T07:21:41.350Z,4.10
2022-08-29T07:24:09.950Z,3.70
2022-08-29T07:26:42.508Z,3.83
2022-08-29T07:29:15.907Z,4.47
2022-08-29T07:31:45.982Z,3.80
2022-08-29T07:34:14.512Z,4.07
2022-08-29T07:36:43.037Z,4.27
2022-08-29T07:39:14.754Z,4.27
2022-08-29T07:41:44.553Z,4.07
2022-08-29T07:44:14.286Z,3.80
2022-08-29T07:46:43.514Z,3.90
2022-08-29T07:49:13.417Z,4.60
2022-08-29T07:51:44.238Z,4.20
2022-08-29T07:54:16.506Z,4.00
2022-08-29T07:56:44.934Z,3.93
2022-08-29T07:59:13.309Z,5.07
2022-08-29T08:01:41.524Z,4.37
2022-08-29T08:04:11.062Z,4.33
2022-08-29T08:06:42.714Z,4.53
2022-08-29T08:09:12.019Z,4.03
2022-08-29T08:11:41.085Z,3.60
2022-08-29T08:14:09.922Z,4.33
2022-08-29T08:16:38.877Z,4.10
2022-08-29T08:19:13.009Z,3.97
2022-08-29T08:21:46.974Z,4.67
2022-08-29T08:24:19.794Z,4.43
2022-08-29T08:26:49.562Z,4.60
2022-08-29T08:29:18.966Z,4.50
2022-08-29T08:31:49.467Z,4.20
2022-08-29T08:34:18.009Z,4.50
2022-08-29T08:36:47.786Z,5.03
2022-08-29T08:39:16.636Z,3.88
2022-08-29T08:41:54.539Z,4.05
2022-08-29T08:45:01.679Z,4.32
2022-08-29T08:47:34.458Z,4.28
2022-08-29T08:50:11.208Z,4.28
2022-08-29T08:52:47.317Z,4.03
2022-08-29T08:55:35.498Z,4.28
2022-08-29T08:58:17.060Z,4.82
2022-08-29T09:00:48.844Z,3.90
2022-08-29T09:03:57.343Z,4.00
2022-08-29T09:06:43.848Z,3.50
2022-08-29T09:09:24.702Z,4.00
2022-08-29T09:12:03.401Z,3.97
2022-08-29T09:14:49.490Z,4.18
2022-08-29T09:17:24.989Z,3.70
2022-08-29T09:19:53.529Z,4.05
2022-08-29T09:22:32.861Z,3.58
2022-08-29T09:25:06.842Z,4.18
2022-08-29T09:27:37.485Z,3.58
2022-08-29T09:30:11.994Z,3.88
2022-08-29T09:33:00.807Z,4.35
2022-08-29T09:35:37.031Z,3.60
2022-08-29T09:38:07.649Z,3.70
2022-08-29T09:40:55.739Z,4.28
2022-08-29T09:43:28.562Z,4.20
2022-08-29T09:46:17.553Z,3.97
2022-08-29T09:48:50.336Z,4.22
2022-08-29T09:51:28.355Z,4.20
2022-08-29T09:54:15.689Z,3.92
2022-08-29T09:56:54.360Z,3.58
2022-08-29T09:59:30.523Z,3.65
2022-08-29T10:02:31.191Z,3.28
2022-08-29T10:05:03.544Z,3.65
2022-08-29T10:07:37.458Z,3.92
2022-08-29T10:10:17.454Z,3.97
2022-08-29T10:12:56.294Z,3.90
2022-08-29T10:15:49.454Z,5.13
2022-08-29T10:18:28.578Z,3.90
2022-08-29T10:21:10.275Z,3.50
2022-08-29T10:23:53.044Z,2.88
2022-08-29T10:26:33.270Z,3.15
2022-08-29T10:29:15.172Z,3.35
2022-08-29T10:31:51.970Z,3.80
2022-08-29T10:34:42.381Z,2.83
2022-08-29T10:37:23.216Z,3.35
2022-08-29T10:39:59.367Z,3.58
2022-08-29T10:42:28.118Z,3.25
2022-08-29T10:45:16.828Z,3.55
2022-08-29T10:47:54.283Z,3.85
2022-08-29T10:50:44.058Z,3.15
2022-08-29T10:53:18.518Z,3.65
2022-08-29T10:55:54.879Z,3.30
2022-08-29T10:58:56.937Z,3.38
2022-08-29T11:01:32.347Z,3.63
2022-08-29T11:04:17.554Z,3.67
2022-08-29T11:06:53.297Z,3.40
2022-08-29T11:09:27.989Z,3.35
2022-08-29T11:12:10.042Z,3.42
2022-08-29T11:14:48.984Z,3.38
2022-08-29T11:17:20.462Z,3.35
2022-08-29T11:19:59.460Z,3.40
2022-08-29T11:22:34.726Z,5.78
2022-08-29T11:25:10.987Z,4.55
2022-08-29T11:27:54.692Z,3.80
2022-08-29T11:30:30.788Z,3.03
2022-08-29T11:33:15.810Z,3.28
2022-08-29T11:36:07.256Z,3.20
2022-08-29T11:39:14.430Z,3.47
2022-08-29T11:41:44.997Z,3.63
2022-08-29T11:44:24.092Z,4.50
2022-08-29T11:46:56.623Z,3.60
2022-08-29T11:49:38.825Z,3.17
2022-08-29T11:52:24.898Z,3.05
2022-08-29T11:55:28.302Z,2.97
2022-08-29T11:58:40.609Z,3.55
2022-08-29T12:01:12.120Z,3.10
2022-08-29T12:03:51.125Z,3.20
2022-08-29T12:06:43.281Z,2.97
2022-08-29T12:09:43.479Z,3.08
2022-08-29T12:12:19.680Z,3.05
2022-08-29T12:14:50.379Z,2.78
2022-08-29T12:18:01.349Z,3.17
2022-08-29T12:20:41.732Z,3.20
2022-08-29T12:23:30.298Z,2.70
2022-08-29T12:26:22.778Z,2.63
2022-08-29T12:28:59.674Z,2.97
2022-08-29T12:32:22.725Z,3.13
2022-08-29T12:35:28.403Z,2.88
2022-08-29T12:38:11.605Z,2.65
2022-08-29T12:40:58.562Z,2.40
2022-08-29T12:43:36.386Z,2.17
2022-08-29T12:46:14.053Z,2.78
2022-08-29T12:48:57.370Z,2.65
2022-08-29T12:51:35.229Z,2.47
2022-08-29T12:54:03.591Z,2.30
2022-08-29T12:56:34.593Z,2.72
2022-08-29T12:59:05.826Z,3.22
2022-08-29T13:01:38.432Z,4.85
2022-08-29T13:04:18.936Z,3.03
2022-08-29T13:06:58.678Z,3.92
2022-08-29T13:09:33.139Z,2.58
2022-08-29T13:12:16.686Z,2.47
2022-08-29T13:14:51.521Z,2.47
2022-08-29T13:17:22.862Z,2.58
2022-08-29T13:20:45.915Z,2.40
2022-08-29T13:23:26.279Z,2.17
2022-08-29T13:26:01.987Z,2.58
2022-08-29T13:28:43.015Z,2.88
2022-08-29T13:31:34.491Z,2.40
2022-08-29T13:34:22.308Z,2.40
2022-08-29T13:37:06.305Z,2.30
2022-08-29T13:39:48.194Z,2.38
2022-08-29T13:42:33.547Z,2.33
2022-08-29T13:45:19.411Z,2.40
2022-08-29T13:47:57.661Z,2.55
2022-08-29T13:50:27.925Z,2.15
2022-08-29T13:52:58.186Z,2.40
2022-08-29T13:55:26.596Z,2.10
2022-08-29T13:57:56.444Z,2.55
2022-08-29T14:00:34.821Z,2.50
2022-08-29T14:03:05.418Z,2.47
2022-08-29T14:05:35.118Z,2.67
2022-08-29T14:08:04.302Z,2.25
2022-08-29T14:10:32.419Z,2.42
2022-08-29T14:13:00.578Z,2.53
2022-08-29T14:15:30.222Z,2.97
2022-08-29T14:17:58.581Z,2.70
2022-08-29T14:20:27.347Z,2.53
2022-08-29T14:22:55.543Z,2.55
2022-08-29T14:25:23.754Z,2.65
2022-08-29T14:27:53.593Z,2.33
2022-08-29T14:30:25.743Z,2.30
2022-08-29T14:32:55.261Z,2.20
2022-08-29T14:35:26.046Z,2.53
2022-08-29T14:37:56.022Z,2.40
2022-08-29T14:40:25.828Z,2.50
2022-08-29T14:42:59.739Z,2.00
2022-08-29T14:45:30.273Z,1.88
2022-08-29T14:47:59.918Z,2.50
2022-08-29T14:50:28.354Z,2.38
2022-08-29T14:52:56.642Z,2.30
2022-08-29T14:55:25.712Z,2.05
2022-08-29T14:57:54.107Z,2.05
2022-08-29T15:00:28.042Z,1.98
2022-08-29T15:02:57.158Z,2.10
2022-08-29T15:05:27.149Z,2.03
2022-08-29T15:07:55.299Z,2.05
2022-08-29T15:10:25.503Z,2.00
2022-08-29T15:12:54.092Z,1.75
2022-08-29T15:15:28.912Z,1.83
2022-08-29T15:17:57.409Z,1.67
2022-08-29T15:20:36.314Z,1.70
2022-08-29T15:23:05.622Z,1.92
2022-08-29T15:25:34.109Z,3.40
2022-08-29T15:28:02.624Z,2.20
2022-08-29T15:30:30.721Z,2.63
2022-08-29T15:32:58.978Z,3.92
2022-08-29T15:35:28.423Z,2.28
2022-08-29T15:37:57.361Z,1.88
2022-08-29T15:40:25.947Z,1.67
2022-08-29T15:42:54.417Z,1.73
2022-08-29T15:45:23.750Z,1.88
2022-08-29T15:47:53.935Z,1.90
2022-08-29T15:50:23.854Z,1.45
2022-08-29T15:52:53.625Z,1.55
2022-08-29T15:55:22.552Z,1.50
2022-08-29T15:57:52.890Z,1.60
2022-08-29T16:00:29.800Z,1.80
2022-08-29T16:03:01.322Z,1.40
2022-08-29T16:05:30.464Z,1.90
2022-08-29T16:07:59.969Z,1.65
2022-08-29T16:10:28.275Z,1.65
2022-08-29T16:12:56.443Z,1.95
2022-08-29T16:15:24.920Z,1.63
2022-08-29T16:17:53.581Z,1.65
2022-08-29T16:20:22.048Z,1.80
2022-08-29T16:22:50.596Z,1.50
2022-08-29T16:25:21.338Z,1.65
2022-08-29T16:27:50.188Z,2.22
2022-08-29T16:30:19.994Z,2.83
2022-08-29T16:32:49.866Z,1.60
2022-08-29T16:35:20.415Z,1.70
2022-08-29T16:37:51.392Z,2.03
2022-08-29T16:40:33.431Z,1.65
2022-08-29T16:43:02.835Z,1.80
2022-08-29T16:45:35.302Z,1.67
2022-08-29T16:48:04.721Z,1.60
2022-08-29T16:50:38.935Z,1.67
2022-08-29T16:53:07.237Z,1.40
2022-08-29T16:55:36.721Z,1.55
2022-08-29T16:58:22.685Z,1.30
2022-08-29T17:00:51.640Z,1.55
2022-08-29T17:03:20.967Z,1.90
2022-08-29T17:05:50.280Z,1.83
2022-08-29T17:08:17.681Z,1.60
2022-08-29T17:10:46.768Z,1.42
2022-08-29T17:13:13.882Z,1.52
2022-08-29T17:15:41.044Z,1.90
2022-08-29T17:18:09.322Z,1.70
2022-08-29T17:20:37.995Z,1.58
2022-08-29T17:23:10.072Z,1.40
2022-08-29T17:25:39.231Z,1.58
2022-08-29T17:28:18.411Z,1.98
2022-08-29T17:30:49.106Z,1.80
2022-08-29T17:33:17.679Z,1.73
2022-08-29T17:35:46.358Z,1.67
2022-08-29T17:38:15.977Z,1.70
2022-08-29T17:40:44.621Z,1.98
2022-08-29T17:43:14.577Z,1.73
2022-08-29T17:45:42.940Z,1.92
2022-08-29T17:48:12.078Z,1.90
2022-08-29T17:50:41.762Z,1.60
2022-08-29T17:53:09.892Z,1.70
2022-08-29T17:55:38.179Z,1.92
2022-08-29T17:58:06.332Z,2.00
2022-08-29T18:00:36.369Z,1.90
2022-08-29T18:03:05.052Z,1.80
2022-08-29T18:05:33.301Z,1.90
2022-08-29T18:08:01.433Z,1.88
2022-08-29T18:10:30.244Z,2.42
2022-08-29T18:12:58.606Z,2.20
2022-08-29T18:15:26.839Z,2.55
2022-08-29T18:17:57.059Z,2.20
2022-08-29T18:20:25.233Z,2.10
2022-08-29T18:22:53.361Z,2.07
2022-08-29T18:25:23.794Z,2.43
2022-08-29T18:27:52.208Z,2.20
2022-08-29T18:30:21.471Z,2.03
2022-08-29T18:32:50.156Z,3.40
2022-08-29T18:35:19.807Z,2.60
2022-08-29T18:37:47.890Z,2.50
2022-08-29T18:40:16.195Z,2.37
2022-08-29T18:42:44.801Z,2.33
2022-08-29T18:45:13.395Z,1.97
2022-08-29T18:47:41.496Z,2.77
2022-08-29T18:50:28.556Z,6.70
2022-08-29T18:52:58.129Z,2.93
2022-08-29T18:55:26.768Z,3.67
2022-08-29T18:57:55.433Z,4.20
2022-08-29T19:00:25.050Z,4.63
2022-08-29T19:02:53.990Z,5.33
2022-08-29T19:05:22.762Z,5.10
2022-08-29T19:07:51.252Z,4.80
2022-08-29T19:10:21.746Z,4.80
2022-08-29T19:12:50.693Z,5.60
2022-08-29T19:15:21.267Z,5.70
2022-08-29T19:17:49.824Z,4.37
2022-08-29T19:20:51.960Z,4.53
2022-08-29T19:23:21.323Z,3.43
2022-08-29T19:25:51.570Z,4.03
2022-08-29T19:28:20.724Z,3.70
2022-08-29T19:30:52.132Z,3.83
2022-08-29T19:33:22.842Z,4.03
2022-08-29T19:35:53.610Z,4.37
2022-08-29T19:38:23.482Z,5.50
2022-08-29T19:40:56.378Z,6.40
2022-08-29T19:43:25.718Z,5.67
2022-08-29T19:45:54.774Z,6.50
2022-08-29T19:48:23.550Z,6.40
2022-08-29T19:50:53.920Z,5.30
2022-08-29T19:53:26.920Z,4.37
2022-08-29T19:55:57.272Z,3.97
2022-08-29T19:58:32.121Z,4.17
2022-08-29T20:01:03.474Z,4.10
2022-08-29T20:03:32.857Z,3.60
2022-08-29T20:06:06.077Z,3.97
2022-08-29T20:08:36.740Z,3.80
2022-08-29T20:11:06.970Z,4.77
2022-08-29T20:13:36.420Z,3.80
2022-08-29T20:16:12.192Z,4.40
2022-08-29T20:18:41.561Z,4.33
2022-08-29T20:21:09.820Z,4.50
2022-08-29T20:23:41.459Z,5.30
2022-08-29T20:26:19.693Z,5.80
2022-08-29T20:28:49.077Z,5.93
2022-08-29T20:31:17.364Z,7.47
2022-08-29T20:33:47.390Z,8.27
2022-08-29T20:36:34.050Z,9.10
2022-08-29T20:39:10.326Z,8.43
2022-08-29T20:41:40.002Z,8.70
2022-08-29T20:44:10.111Z,8.77
2022-08-29T20:46:42.293Z,9.23
2022-08-29T20:49:11.297Z,8.80
2022-08-29T20:51:42.281Z,9.00
2022-08-29T20:54:10.573Z,8.50
2022-08-29T20:56:40.093Z,8.70
2022-08-29T20:59:08.590Z,8.23
2022-08-29T21:01:37.025Z,8.63
2022-08-29T21:04:25.372Z,9.20
2022-08-29T21:06:55.905Z,8.70
2022-08-29T21:09:24.495Z,8.47
2022-08-29T21:11:54.711Z,9.03
2022-08-29T21:14:23.488Z,8.63
2022-08-29T21:16:53.386Z,10.37
2022-08-29T21:19:22.748Z,10.33
2022-08-29T21:21:51.376Z,9.83
2022-08-29T21:24:20.391Z,10.00
2022-08-29T21:26:49.345Z,9.27
2022-08-29T21:29:20.106Z,9.67
2022-08-29T21:31:48.745Z,11.63
2022-08-29T21:34:17.564Z,14.60
2022-08-29T21:36:46.085Z,13.53
2022-08-29T21:39:19.737Z,13.57
2022-08-29T21:41:56.443Z,12.07
2022-08-29T21:44:25.949Z,9.47
2022-08-29T21:46:54.172Z,7.23
2022-08-29T21:49:22.460Z,6.77
2022-08-29T21:51:51.473Z,5.30
2022-08-29T21:54:20.066Z,4.07
2022-08-29T21:56:49.297Z,3.97
2022-08-29T21:59:19.258Z,4.47
2022-08-29T22:01:54.585Z,3.63
2022-08-29T22:04:28.429Z,3.13
2022-08-29T22:06:59.305Z,3.10
2022-08-29T22:09:28.881Z,2.90
2022-08-29T22:11:57.396Z,3.40
2022-08-29T22:14:46.685Z,3.37
2022-08-29T22:17:16.017Z,3.27
2022-08-29T22:19:44.151Z,4.83
2022-08-29T22:22:12.445Z,5.67
2022-08-29T22:24:40.638Z,7.47
2022-08-29T22:27:08.891Z,7.00
2022-08-29T22:29:37.504Z,8.13
2022-08-29T22:32:06.375Z,8.50
2022-08-29T22:34:35.864Z,7.93
2022-08-29T22:37:04.377Z,7.20
2022-08-29T22:39:32.594Z,7.27
2022-08-29T22:42:01.067Z,8.00
2022-08-29T22:44:59.684Z,8.37
2022-08-29T22:47:21.397Z,8.47
2022-08-29T22:49:50.868Z,8.50
2022-08-29T22:52:19.390Z,8.57
2022-08-29T22:54:48.042Z,12.20
2022-08-29T22:57:19.182Z,14.67
2022-08-29T22:59:49.151Z,15.80
2022-08-29T23:02:20.475Z,16.00
2022-08-29T23:04:51.843Z,17.53
2022-08-29T23:07:20.861Z,17.90
2022-08-29T23:09:48.937Z,17.50
2022-08-29T23:12:17.284Z,15.73
2022-08-29T23:14:47.173Z,15.07
2022-08-29T23:17:16.843Z,12.57
2022-08-29T23:19:45.785Z,12.83
2022-08-29T23:22:15.645Z,11.60
2022-08-29T23:24:58.530Z,9.63
2022-08-29T23:27:27.876Z,9.40
2022-08-29T23:29:56.382Z,8.33
2022-08-29T23:32:24.525Z,8.93
2022-08-29T23:34:52.706Z,9.50
2022-08-29T23:37:22.197Z,9.03
2022-08-29T23:39:50.823Z,8.97
2022-08-29T23:42:19.223Z,8.90
2022-08-29T23:44:48.329Z,8.53
2022-08-29T23:47:16.916Z,8.10
2022-08-29T23:49:45.144Z,7.90
2022-08-29T23:52:13.420Z,7.57
2022-08-29T23:54:43.018Z,7.87
2022-08-29T23:57:11.233Z,8.07
2022-08-29T23:59:56.944Z,7.20
